sensor_id;sensor_type;location;lat;lon;timestamp;temperature;humidity
71942;DHT22;59997;53.300;-6.260;2022-07-09T00:00:34;16.25;89.85
71942;DHT22;59997;53.300;-6.260;2022-07-09T00:03:00;16.36;89.96
71942;DHT22;59997;53.300;-6.260;2022-07-09T00:05:26;16.34;89.59
71942;DHT22;59997;53.300;-6.260;2022-07-09T00:07:52;16.29;89.54
71942;DHT22;59997;53.300;-6.260;2022-07-09T00:10:18;16.22;89.79
71942;DHT22;59997;53.300;-6.260;2022-07-09T00:12:44;16.27;89.70
71942;DHT22;59997;53.300;-6.260;2022-07-09T00:15:12;16.27;89.91
71942;DHT22;59997;53.300;-6.260;2022-07-09T00:17:38;16.31;89.86
71942;DHT22;59997;53.300;-6.260;2022-07-09T00:20:04;16.32;89.55
71942;DHT22;59997;53.300;-6.260;2022-07-09T00:22:31;16.38;88.93
71942;DHT22;59997;53.300;-6.260;2022-07-09T00:24:58;16.48;87.79
71942;DHT22;59997;53.300;-6.260;2022-07-09T00:27:25;16.34;88.28
71942;DHT22;59997;53.300;-6.260;2022-07-09T00:29:51;16.28;88.36
71942;DHT22;59997;53.300;-6.260;2022-07-09T00:32:17;16.16;88.61
71942;DHT22;59997;53.300;-6.260;2022-07-09T00:34:46;16.06;88.78
71942;DHT22;59997;53.300;-6.260;2022-07-09T00:37:12;15.96;89.20
71942;DHT22;59997;53.300;-6.260;2022-07-09T00:39:38;15.90;89.49
71942;DHT22;59997;53.300;-6.260;2022-07-09T00:42:08;15.94;89.62
71942;DHT22;59997;53.300;-6.260;2022-07-09T00:44:35;16.10;89.34
71942;DHT22;59997;53.300;-6.260;2022-07-09T00:47:03;16.21;88.83
71942;DHT22;59997;53.300;-6.260;2022-07-09T00:49:30;16.31;88.41
71942;DHT22;59997;53.300;-6.260;2022-07-09T00:51:58;16.36;88.19
71942;DHT22;59997;53.300;-6.260;2022-07-09T00:54:24;16.52;87.52
71942;DHT22;59997;53.300;-6.260;2022-07-09T00:56:55;16.53;87.01
71942;DHT22;59997;53.300;-6.260;2022-07-09T00:59:22;16.58;86.57
71942;DHT22;59997;53.300;-6.260;2022-07-09T01:01:49;16.56;86.38
71942;DHT22;59997;53.300;-6.260;2022-07-09T01:04:15;16.59;86.22
71942;DHT22;59997;53.300;-6.260;2022-07-09T01:06:40;16.62;86.06
71942;DHT22;59997;53.300;-6.260;2022-07-09T01:09:06;16.63;85.93
71942;DHT22;59997;53.300;-6.260;2022-07-09T01:11:33;16.62;85.92
71942;DHT22;59997;53.300;-6.260;2022-07-09T01:14:00;16.60;86.00
71942;DHT22;59997;53.300;-6.260;2022-07-09T01:16:38;16.65;85.77
71942;DHT22;59997;53.300;-6.260;2022-07-09T01:19:04;16.65;85.54
71942;DHT22;59997;53.300;-6.260;2022-07-09T01:21:30;16.69;85.29
71942;DHT22;59997;53.300;-6.260;2022-07-09T01:23:56;16.73;85.19
71942;DHT22;59997;53.300;-6.260;2022-07-09T01:26:27;16.70;85.18
71942;DHT22;59997;53.300;-6.260;2022-07-09T01:28:53;16.72;85.03
71942;DHT22;59997;53.300;-6.260;2022-07-09T01:31:19;16.66;85.27
71942;DHT22;59997;53.300;-6.260;2022-07-09T01:33:46;16.69;85.20
71942;DHT22;59997;53.300;-6.260;2022-07-09T01:36:12;16.69;85.08
71942;DHT22;59997;53.300;-6.260;2022-07-09T01:38:38;16.63;85.46
71942;DHT22;59997;53.300;-6.260;2022-07-09T01:41:04;16.62;85.46
71942;DHT22;59997;53.300;-6.260;2022-07-09T01:43:29;16.63;85.46
71942;DHT22;59997;53.300;-6.260;2022-07-09T01:45:57;16.60;85.46
71942;DHT22;59997;53.300;-6.260;2022-07-09T01:48:25;16.62;85.53
71942;DHT22;59997;53.300;-6.260;2022-07-09T01:50:51;16.62;85.49
71942;DHT22;59997;53.300;-6.260;2022-07-09T01:53:19;16.60;85.33
71942;DHT22;59997;53.300;-6.260;2022-07-09T01:55:45;16.59;85.40
71942;DHT22;59997;53.300;-6.260;2022-07-09T01:58:10;16.58;85.57
71942;DHT22;59997;53.300;-6.260;2022-07-09T02:00:36;16.58;85.51
71942;DHT22;59997;53.300;-6.260;2022-07-09T02:03:01;16.56;85.60
71942;DHT22;59997;53.300;-6.260;2022-07-09T02:05:29;16.60;85.35
71942;DHT22;59997;53.300;-6.260;2022-07-09T02:07:55;16.52;85.70
71942;DHT22;59997;53.300;-6.260;2022-07-09T02:10:21;16.51;85.62
71942;DHT22;59997;53.300;-6.260;2022-07-09T02:12:47;16.52;85.71
71942;DHT22;59997;53.300;-6.260;2022-07-09T02:15:12;16.51;85.63
71942;DHT22;59997;53.300;-6.260;2022-07-09T02:17:39;16.49;85.83
71942;DHT22;59997;53.300;-6.260;2022-07-09T02:20:07;16.48;85.80
71942;DHT22;59997;53.300;-6.260;2022-07-09T02:22:34;16.42;86.09
71942;DHT22;59997;53.300;-6.260;2022-07-09T02:25:00;16.47;85.94
71942;DHT22;59997;53.300;-6.260;2022-07-09T02:27:26;16.41;86.21
71942;DHT22;59997;53.300;-6.260;2022-07-09T02:29:52;16.41;86.44
71942;DHT22;59997;53.300;-6.260;2022-07-09T02:32:18;16.41;86.26
71942;DHT22;59997;53.300;-6.260;2022-07-09T02:34:43;16.47;86.13
71942;DHT22;59997;53.300;-6.260;2022-07-09T02:37:10;16.35;86.48
71942;DHT22;59997;53.300;-6.260;2022-07-09T02:39:36;16.41;86.31
71942;DHT22;59997;53.300;-6.260;2022-07-09T02:42:02;16.40;86.25
71942;DHT22;59997;53.300;-6.260;2022-07-09T02:44:29;16.42;86.11
71942;DHT22;59997;53.300;-6.260;2022-07-09T02:46:54;16.38;86.44
71942;DHT22;59997;53.300;-6.260;2022-07-09T02:49:21;16.41;86.21
71942;DHT22;59997;53.300;-6.260;2022-07-09T02:51:49;16.42;86.20
71942;DHT22;59997;53.300;-6.260;2022-07-09T02:54:14;16.41;86.21
71942;DHT22;59997;53.300;-6.260;2022-07-09T02:56:40;16.40;86.34
71942;DHT22;59997;53.300;-6.260;2022-07-09T02:59:06;16.38;86.39
71942;DHT22;59997;53.300;-6.260;2022-07-09T03:01:31;16.36;86.36
71942;DHT22;59997;53.300;-6.260;2022-07-09T03:03:57;16.35;86.54
71942;DHT22;59997;53.300;-6.260;2022-07-09T03:06:23;16.31;86.64
71942;DHT22;59997;53.300;-6.260;2022-07-09T03:08:49;16.35;86.64
71942;DHT22;59997;53.300;-6.260;2022-07-09T03:11:15;16.32;86.62
71942;DHT22;59997;53.300;-6.260;2022-07-09T03:13:40;16.34;86.59
71942;DHT22;59997;53.300;-6.260;2022-07-09T03:16:06;16.32;86.67
71942;DHT22;59997;53.300;-6.260;2022-07-09T03:18:32;16.31;86.86
71942;DHT22;59997;53.300;-6.260;2022-07-09T03:20:59;16.34;86.73
71942;DHT22;59997;53.300;-6.260;2022-07-09T03:23:25;16.28;87.03
71942;DHT22;59997;53.300;-6.260;2022-07-09T03:25:51;16.29;86.90
71942;DHT22;59997;53.300;-6.260;2022-07-09T03:28:18;16.34;86.82
71942;DHT22;59997;53.300;-6.260;2022-07-09T03:30:44;16.28;86.92
71942;DHT22;59997;53.300;-6.260;2022-07-09T03:33:09;16.27;86.98
71942;DHT22;59997;53.300;-6.260;2022-07-09T03:35:35;16.31;86.83
71942;DHT22;59997;53.300;-6.260;2022-07-09T03:38:00;16.28;86.87
71942;DHT22;59997;53.300;-6.260;2022-07-09T03:40:26;16.27;87.00
71942;DHT22;59997;53.300;-6.260;2022-07-09T03:42:52;16.24;87.11
71942;DHT22;59997;53.300;-6.260;2022-07-09T03:45:19;16.27;87.05
71942;DHT22;59997;53.300;-6.260;2022-07-09T03:47:45;16.21;87.17
71942;DHT22;59997;53.300;-6.260;2022-07-09T03:50:11;16.24;87.22
71942;DHT22;59997;53.300;-6.260;2022-07-09T03:52:38;16.31;87.05
71942;DHT22;59997;53.300;-6.260;2022-07-09T03:55:04;16.27;87.06
71942;DHT22;59997;53.300;-6.260;2022-07-09T03:57:30;16.25;87.22
71942;DHT22;59997;53.300;-6.260;2022-07-09T03:59:55;16.21;87.43
71942;DHT22;59997;53.300;-6.260;2022-07-09T04:02:22;16.18;87.59
71942;DHT22;59997;53.300;-6.260;2022-07-09T04:04:48;16.16;87.87
71942;DHT22;59997;53.300;-6.260;2022-07-09T04:07:15;16.20;87.62
71942;DHT22;59997;53.300;-6.260;2022-07-09T04:09:41;16.21;87.60
71942;DHT22;59997;53.300;-6.260;2022-07-09T04:12:07;16.21;87.58
71942;DHT22;59997;53.300;-6.260;2022-07-09T04:14:34;16.22;87.57
71942;DHT22;59997;53.300;-6.260;2022-07-09T04:17:01;16.27;87.46
71942;DHT22;59997;53.300;-6.260;2022-07-09T04:19:27;16.27;87.60
71942;DHT22;59997;53.300;-6.260;2022-07-09T04:21:53;16.17;88.02
71942;DHT22;59997;53.300;-6.260;2022-07-09T04:24:18;16.24;87.77
71942;DHT22;59997;53.300;-6.260;2022-07-09T04:26:44;16.25;87.73
71942;DHT22;59997;53.300;-6.260;2022-07-09T04:29:10;16.21;87.79
71942;DHT22;59997;53.300;-6.260;2022-07-09T04:31:38;16.20;87.79
71942;DHT22;59997;53.300;-6.260;2022-07-09T04:34:04;16.20;87.74
71942;DHT22;59997;53.300;-6.260;2022-07-09T04:36:30;16.16;88.00
71942;DHT22;59997;53.300;-6.260;2022-07-09T04:38:57;16.17;87.90
71942;DHT22;59997;53.300;-6.260;2022-07-09T04:41:23;16.16;88.05
71942;DHT22;59997;53.300;-6.260;2022-07-09T04:43:49;16.17;88.10
71942;DHT22;59997;53.300;-6.260;2022-07-09T04:46:15;16.14;88.34
71942;DHT22;59997;53.300;-6.260;2022-07-09T04:48:42;16.11;88.48
71942;DHT22;59997;53.300;-6.260;2022-07-09T04:51:08;16.11;88.58
71942;DHT22;59997;53.300;-6.260;2022-07-09T04:53:33;16.07;88.66
71942;DHT22;59997;53.300;-6.260;2022-07-09T04:55:59;16.03;88.78
71942;DHT22;59997;53.300;-6.260;2022-07-09T04:58:25;16.01;89.02
71942;DHT22;59997;53.300;-6.260;2022-07-09T05:00:52;15.94;89.28
71942;DHT22;59997;53.300;-6.260;2022-07-09T05:03:18;15.97;89.08
71942;DHT22;59997;53.300;-6.260;2022-07-09T05:05:44;15.99;89.28
71942;DHT22;59997;53.300;-6.260;2022-07-09T05:08:10;15.93;89.34
71942;DHT22;59997;53.300;-6.260;2022-07-09T05:10:36;15.93;89.23
71942;DHT22;59997;53.300;-6.260;2022-07-09T05:13:01;15.94;88.97
71942;DHT22;59997;53.300;-6.260;2022-07-09T05:15:28;15.99;88.92
71942;DHT22;59997;53.300;-6.260;2022-07-09T05:17:56;16.03;88.78
71942;DHT22;59997;53.300;-6.260;2022-07-09T05:20:22;16.08;88.52
71942;DHT22;59997;53.300;-6.260;2022-07-09T05:22:48;16.10;88.08
71942;DHT22;59997;53.300;-6.260;2022-07-09T05:25:14;16.11;88.18
71942;DHT22;59997;53.300;-6.260;2022-07-09T05:27:44;16.08;88.19
71942;DHT22;59997;53.300;-6.260;2022-07-09T05:30:12;16.13;87.94
71942;DHT22;59997;53.300;-6.260;2022-07-09T05:32:40;16.17;87.76
71942;DHT22;59997;53.300;-6.260;2022-07-09T05:35:06;16.24;87.55
71942;DHT22;59997;53.300;-6.260;2022-07-09T05:37:32;16.21;87.55
71942;DHT22;59997;53.300;-6.260;2022-07-09T05:39:58;16.16;87.82
71942;DHT22;59997;53.300;-6.260;2022-07-09T05:42:26;16.14;87.98
71942;DHT22;59997;53.300;-6.260;2022-07-09T05:44:52;16.18;87.96
71942;DHT22;59997;53.300;-6.260;2022-07-09T05:47:18;16.18;87.99
71942;DHT22;59997;53.300;-6.260;2022-07-09T05:49:43;16.13;88.70
71942;DHT22;59997;53.300;-6.260;2022-07-09T05:52:08;16.13;88.98
71942;DHT22;59997;53.300;-6.260;2022-07-09T05:54:35;16.01;89.36
71942;DHT22;59997;53.300;-6.260;2022-07-09T05:57:02;15.96;89.70
71942;DHT22;59997;53.300;-6.260;2022-07-09T05:59:27;15.90;89.98
71942;DHT22;59997;53.300;-6.260;2022-07-09T06:01:54;15.97;90.27
71942;DHT22;59997;53.300;-6.260;2022-07-09T06:04:21;16.08;89.75
71942;DHT22;59997;53.300;-6.260;2022-07-09T06:06:47;16.16;89.77
71942;DHT22;59997;53.300;-6.260;2022-07-09T06:09:12;16.21;89.20
71942;DHT22;59997;53.300;-6.260;2022-07-09T06:11:37;16.38;88.96
71942;DHT22;59997;53.300;-6.260;2022-07-09T06:14:04;16.49;88.58
71942;DHT22;59997;53.300;-6.260;2022-07-09T06:16:30;16.47;87.44
71942;DHT22;59997;53.300;-6.260;2022-07-09T06:18:56;16.35;87.70
71942;DHT22;59997;53.300;-6.260;2022-07-09T06:21:22;16.36;87.69
71942;DHT22;59997;53.300;-6.260;2022-07-09T06:23:47;16.36;87.75
71942;DHT22;59997;53.300;-6.260;2022-07-09T06:26:14;16.32;87.64
71942;DHT22;59997;53.300;-6.260;2022-07-09T06:28:39;16.29;87.44
71942;DHT22;59997;53.300;-6.260;2022-07-09T06:31:05;16.28;87.40
71942;DHT22;59997;53.300;-6.260;2022-07-09T06:33:30;16.27;87.35
71942;DHT22;59997;53.300;-6.260;2022-07-09T06:35:56;16.27;87.70
71942;DHT22;59997;53.300;-6.260;2022-07-09T06:38:21;16.22;87.48
71942;DHT22;59997;53.300;-6.260;2022-07-09T06:40:47;16.16;87.97
71942;DHT22;59997;53.300;-6.260;2022-07-09T06:43:14;16.21;87.98
71942;DHT22;59997;53.300;-6.260;2022-07-09T06:45:40;16.13;88.24
71942;DHT22;59997;53.300;-6.260;2022-07-09T06:48:05;16.10;88.42
71942;DHT22;59997;53.300;-6.260;2022-07-09T06:50:31;16.14;88.74
71942;DHT22;59997;53.300;-6.260;2022-07-09T06:52:58;16.14;88.51
71942;DHT22;59997;53.300;-6.260;2022-07-09T06:55:24;16.24;87.94
71942;DHT22;59997;53.300;-6.260;2022-07-09T06:57:49;16.28;87.85
71942;DHT22;59997;53.300;-6.260;2022-07-09T07:00:15;16.35;87.43
71942;DHT22;59997;53.300;-6.260;2022-07-09T07:02:41;16.52;86.97
71942;DHT22;59997;53.300;-6.260;2022-07-09T07:05:07;16.66;86.14
71942;DHT22;59997;53.300;-6.260;2022-07-09T07:07:33;16.73;85.54
71942;DHT22;59997;53.300;-6.260;2022-07-09T07:09:58;16.93;85.22
71942;DHT22;59997;53.300;-6.260;2022-07-09T07:12:24;17.03;84.67
71942;DHT22;59997;53.300;-6.260;2022-07-09T07:14:50;17.07;84.67
71942;DHT22;59997;53.300;-6.260;2022-07-09T07:17:20;17.07;84.75
71942;DHT22;59997;53.300;-6.260;2022-07-09T07:19:45;17.08;84.22
71942;DHT22;59997;53.300;-6.260;2022-07-09T07:22:12;17.04;84.24
71942;DHT22;59997;53.300;-6.260;2022-07-09T07:24:37;17.06;84.33
71942;DHT22;59997;53.300;-6.260;2022-07-09T07:27:02;17.07;84.50
71942;DHT22;59997;53.300;-6.260;2022-07-09T07:29:28;17.34;83.81
71942;DHT22;59997;53.300;-6.260;2022-07-09T07:31:54;17.61;82.09
71942;DHT22;59997;53.300;-6.260;2022-07-09T07:34:21;17.57;82.41
71942;DHT22;59997;53.300;-6.260;2022-07-09T07:36:51;17.53;82.33
71942;DHT22;59997;53.300;-6.260;2022-07-09T07:39:21;17.59;83.22
71942;DHT22;59997;53.300;-6.260;2022-07-09T07:41:48;17.74;82.38
71942;DHT22;59997;53.300;-6.260;2022-07-09T07:44:14;18.11;81.98
71942;DHT22;59997;53.300;-6.260;2022-07-09T07:46:40;18.38;80.52
71942;DHT22;59997;53.300;-6.260;2022-07-09T07:49:06;18.43;80.14
71942;DHT22;59997;53.300;-6.260;2022-07-09T07:51:32;18.22;80.36
71942;DHT22;59997;53.300;-6.260;2022-07-09T07:53:58;18.11;80.60
71942;DHT22;59997;53.300;-6.260;2022-07-09T07:56:24;18.25;81.31
71942;DHT22;59997;53.300;-6.260;2022-07-09T07:58:50;18.36;80.34
71942;DHT22;59997;53.300;-6.260;2022-07-09T08:01:18;18.22;80.22
71942;DHT22;59997;53.300;-6.260;2022-07-09T08:03:44;18.22;80.24
71942;DHT22;59997;53.300;-6.260;2022-07-09T08:06:09;18.16;79.93
71942;DHT22;59997;53.300;-6.260;2022-07-09T08:08:34;18.04;80.55
71942;DHT22;59997;53.300;-6.260;2022-07-09T08:11:01;17.94;81.16
71942;DHT22;59997;53.300;-6.260;2022-07-09T08:13:28;17.91;81.30
71942;DHT22;59997;53.300;-6.260;2022-07-09T08:15:55;17.87;81.19
71942;DHT22;59997;53.300;-6.260;2022-07-09T08:18:21;18.02;80.45
71942;DHT22;59997;53.300;-6.260;2022-07-09T08:20:47;18.22;79.87
71942;DHT22;59997;53.300;-6.260;2022-07-09T08:23:15;18.15;79.59
71942;DHT22;59997;53.300;-6.260;2022-07-09T08:25:41;18.05;79.14
71942;DHT22;59997;53.300;-6.260;2022-07-09T08:28:08;18.24;79.63
71942;DHT22;59997;53.300;-6.260;2022-07-09T08:30:34;18.25;79.51
71942;DHT22;59997;53.300;-6.260;2022-07-09T08:33:00;18.45;79.96
71942;DHT22;59997;53.300;-6.260;2022-07-09T08:35:26;18.87;79.03
71942;DHT22;59997;53.300;-6.260;2022-07-09T08:37:53;18.84;78.11
71942;DHT22;59997;53.300;-6.260;2022-07-09T08:40:21;18.80;78.41
71942;DHT22;59997;53.300;-6.260;2022-07-09T08:42:49;18.81;78.31
71942;DHT22;59997;53.300;-6.260;2022-07-09T08:45:16;19.08;77.32
71942;DHT22;59997;53.300;-6.260;2022-07-09T08:47:42;19.12;77.01
71942;DHT22;59997;53.300;-6.260;2022-07-09T08:50:08;19.05;76.54
71942;DHT22;59997;53.300;-6.260;2022-07-09T08:52:36;19.19;76.32
71942;DHT22;59997;53.300;-6.260;2022-07-09T08:55:04;19.56;74.48
71942;DHT22;59997;53.300;-6.260;2022-07-09T08:57:31;19.94;73.44
71942;DHT22;59997;53.300;-6.260;2022-07-09T08:59:57;19.75;72.64
71942;DHT22;59997;53.300;-6.260;2022-07-09T09:02:23;20.02;72.69
71942;DHT22;59997;53.300;-6.260;2022-07-09T09:04:50;20.63;70.60
71942;DHT22;59997;53.300;-6.260;2022-07-09T09:07:18;21.31;69.15
71942;DHT22;59997;53.300;-6.260;2022-07-09T09:09:44;21.05;69.51
71942;DHT22;59997;53.300;-6.260;2022-07-09T09:12:11;20.94;69.42
71942;DHT22;59997;53.300;-6.260;2022-07-09T09:14:37;20.64;70.44
71942;DHT22;59997;53.300;-6.260;2022-07-09T09:17:09;20.46;70.32
71942;DHT22;59997;53.300;-6.260;2022-07-09T09:19:38;21.69;66.06
71942;DHT22;59997;53.300;-6.260;2022-07-09T09:22:05;22.23;65.79
71942;DHT22;59997;53.300;-6.260;2022-07-09T09:24:33;21.47;66.28
71942;DHT22;59997;53.300;-6.260;2022-07-09T09:27:00;21.36;67.67
71942;DHT22;59997;53.300;-6.260;2022-07-09T09:29:27;21.58;66.42
71942;DHT22;59997;53.300;-6.260;2022-07-09T09:31:53;20.92;68.40
71942;DHT22;59997;53.300;-6.260;2022-07-09T09:34:20;21.30;68.13
71942;DHT22;59997;53.300;-6.260;2022-07-09T09:36:48;21.61;67.54
71942;DHT22;59997;53.300;-6.260;2022-07-09T09:39:28;21.36;67.81
71942;DHT22;59997;53.300;-6.260;2022-07-09T09:42:02;21.58;66.33
71942;DHT22;59997;53.300;-6.260;2022-07-09T09:44:34;21.37;66.26
71942;DHT22;59997;53.300;-6.260;2022-07-09T09:47:05;21.27;66.71
71942;DHT22;59997;53.300;-6.260;2022-07-09T09:49:31;20.72;68.35
71942;DHT22;59997;53.300;-6.260;2022-07-09T09:52:09;20.43;70.08
71942;DHT22;59997;53.300;-6.260;2022-07-09T09:54:39;20.60;69.18
71942;DHT22;59997;53.300;-6.260;2022-07-09T09:57:07;21.13;68.71
71942;DHT22;59997;53.300;-6.260;2022-07-09T09:59:36;22.09;65.83
71942;DHT22;59997;53.300;-6.260;2022-07-09T10:02:04;22.71;64.99
71942;DHT22;59997;53.300;-6.260;2022-07-09T10:04:32;22.95;62.08
71942;DHT22;59997;53.300;-6.260;2022-07-09T10:06:58;22.45;62.87
71942;DHT22;59997;53.300;-6.260;2022-07-09T10:09:25;22.06;64.64
71942;DHT22;59997;53.300;-6.260;2022-07-09T10:11:51;21.31;67.90
71942;DHT22;59997;53.300;-6.260;2022-07-09T10:16:49;20.67;71.35
71942;DHT22;59997;53.300;-6.260;2022-07-09T10:19:28;20.50;72.19
71942;DHT22;59997;53.300;-6.260;2022-07-09T10:21:56;20.78;70.84
71942;DHT22;59997;53.300;-6.260;2022-07-09T10:24:30;21.09;69.93
71942;DHT22;59997;53.300;-6.260;2022-07-09T10:27:11;21.05;68.93
71942;DHT22;59997;53.300;-6.260;2022-07-09T10:29:57;21.12;70.78
71942;DHT22;59997;53.300;-6.260;2022-07-09T10:32:28;21.07;70.23
71942;DHT22;59997;53.300;-6.260;2022-07-09T10:35:04;20.98;69.11
71942;DHT22;59997;53.300;-6.260;2022-07-09T10:37:42;21.26;69.16
71942;DHT22;59997;53.300;-6.260;2022-07-09T10:40:17;21.69;68.43
71942;DHT22;59997;53.300;-6.260;2022-07-09T10:42:56;21.93;65.65
71942;DHT22;59997;53.300;-6.260;2022-07-09T10:45:36;21.77;65.68
71942;DHT22;59997;53.300;-6.260;2022-07-09T10:48:04;21.48;67.44
71942;DHT22;59997;53.300;-6.260;2022-07-09T10:50:32;21.91;67.58
71942;DHT22;59997;53.300;-6.260;2022-07-09T10:53:00;22.65;62.99
71942;DHT22;59997;53.300;-6.260;2022-07-09T10:55:28;22.73;62.70
71942;DHT22;59997;53.300;-6.260;2022-07-09T10:57:54;24.41;60.51
71942;DHT22;59997;53.300;-6.260;2022-07-09T11:00:26;24.84;56.86
71942;DHT22;59997;53.300;-6.260;2022-07-09T11:02:53;24.45;57.11
71942;DHT22;59997;53.300;-6.260;2022-07-09T11:05:22;24.13;58.53
71942;DHT22;59997;53.300;-6.260;2022-07-09T11:08:05;22.79;61.69
71942;DHT22;59997;53.300;-6.260;2022-07-09T11:10:35;22.69;63.24
71942;DHT22;59997;53.300;-6.260;2022-07-09T11:13:02;22.34;63.93
71942;DHT22;59997;53.300;-6.260;2022-07-09T11:15:30;22.30;64.66
71942;DHT22;59997;53.300;-6.260;2022-07-09T11:18:11;22.98;61.63
71942;DHT22;59997;53.300;-6.260;2022-07-09T11:20:45;23.92;59.39
71942;DHT22;59997;53.300;-6.260;2022-07-09T11:23:16;24.45;60.48
71942;DHT22;59997;53.300;-6.260;2022-07-09T11:25:43;24.18;58.16
71942;DHT22;59997;53.300;-6.260;2022-07-09T11:28:18;24.09;59.33
71942;DHT22;59997;53.300;-6.260;2022-07-09T11:31:00;23.52;61.27
71942;DHT22;59997;53.300;-6.260;2022-07-09T11:33:26;22.85;62.24
71942;DHT22;59997;53.300;-6.260;2022-07-09T11:35:52;22.03;64.61
71942;DHT22;59997;53.300;-6.260;2022-07-09T11:38:18;21.81;65.91
71942;DHT22;59997;53.300;-6.260;2022-07-09T11:40:44;21.77;64.65
71942;DHT22;59997;53.300;-6.260;2022-07-09T11:43:15;21.82;64.94
71942;DHT22;59997;53.300;-6.260;2022-07-09T11:45:52;21.86;65.79
71942;DHT22;59997;53.300;-6.260;2022-07-09T11:48:17;21.89;64.89
71942;DHT22;59997;53.300;-6.260;2022-07-09T11:50:44;21.92;64.48
71942;DHT22;59997;53.300;-6.260;2022-07-09T11:53:24;22.06;66.23
71942;DHT22;59997;53.300;-6.260;2022-07-09T11:55:59;22.32;62.97
71942;DHT22;59997;53.300;-6.260;2022-07-09T11:58:29;22.26;62.91
71942;DHT22;59997;53.300;-6.260;2022-07-09T12:00:55;22.21;63.35
71942;DHT22;59997;53.300;-6.260;2022-07-09T12:03:26;22.29;63.56
71942;DHT22;59997;53.300;-6.260;2022-07-09T12:05:52;22.30;63.15
71942;DHT22;59997;53.300;-6.260;2022-07-09T12:08:31;22.10;63.67
71942;DHT22;59997;53.300;-6.260;2022-07-09T12:11:01;21.71;63.98
71942;DHT22;59997;53.300;-6.260;2022-07-09T12:13:27;21.65;66.96
71942;DHT22;59997;53.300;-6.260;2022-07-09T12:15:54;21.54;65.48
71942;DHT22;59997;53.300;-6.260;2022-07-09T12:18:20;21.43;64.79
71942;DHT22;59997;53.300;-6.260;2022-07-09T12:20:46;21.26;65.58
71942;DHT22;59997;53.300;-6.260;2022-07-09T12:23:11;21.36;65.67
71942;DHT22;59997;53.300;-6.260;2022-07-09T12:25:37;20.87;66.33
71942;DHT22;59997;53.300;-6.260;2022-07-09T12:28:03;20.84;68.05
71942;DHT22;59997;53.300;-6.260;2022-07-09T12:30:29;20.99;66.82
71942;DHT22;59997;53.300;-6.260;2022-07-09T12:32:57;21.06;66.85
71942;DHT22;59997;53.300;-6.260;2022-07-09T12:35:25;21.15;66.67
71942;DHT22;59997;53.300;-6.260;2022-07-09T12:37:51;21.29;66.52
71942;DHT22;59997;53.300;-6.260;2022-07-09T12:40:17;21.43;66.02
71942;DHT22;59997;53.300;-6.260;2022-07-09T12:42:44;21.43;66.34
71942;DHT22;59997;53.300;-6.260;2022-07-09T12:45:10;21.37;66.86
71942;DHT22;59997;53.300;-6.260;2022-07-09T12:47:37;21.37;67.34
71942;DHT22;59997;53.300;-6.260;2022-07-09T12:50:03;21.44;66.51
71942;DHT22;59997;53.300;-6.260;2022-07-09T12:52:31;21.71;65.04
71942;DHT22;59997;53.300;-6.260;2022-07-09T12:55:01;21.99;64.19
71942;DHT22;59997;53.300;-6.260;2022-07-09T12:57:27;22.18;63.30
71942;DHT22;59997;53.300;-6.260;2022-07-09T12:59:53;22.34;63.16
71942;DHT22;59997;53.300;-6.260;2022-07-09T13:02:19;22.52;62.35
71942;DHT22;59997;53.300;-6.260;2022-07-09T13:04:45;22.81;62.42
71942;DHT22;59997;53.300;-6.260;2022-07-09T13:07:11;23.03;60.91
71942;DHT22;59997;53.300;-6.260;2022-07-09T13:09:37;23.24;60.49
71942;DHT22;59997;53.300;-6.260;2022-07-09T13:12:03;22.78;61.70
71942;DHT22;59997;53.300;-6.260;2022-07-09T13:14:29;22.98;60.86
71942;DHT22;59997;53.300;-6.260;2022-07-09T13:16:55;22.92;62.67
71942;DHT22;59997;53.300;-6.260;2022-07-09T13:19:21;23.21;63.96
71942;DHT22;59997;53.300;-6.260;2022-07-09T13:21:47;23.10;63.48
71942;DHT22;59997;53.300;-6.260;2022-07-09T13:24:13;23.47;63.72
71942;DHT22;59997;53.300;-6.260;2022-07-09T13:26:40;23.10;61.09
71942;DHT22;59997;53.300;-6.260;2022-07-09T13:29:06;23.21;62.15
71942;DHT22;59997;53.300;-6.260;2022-07-09T13:31:31;23.47;63.14
71942;DHT22;59997;53.300;-6.260;2022-07-09T13:33:58;23.21;62.34
71942;DHT22;59997;53.300;-6.260;2022-07-09T13:36:24;23.21;63.92
71942;DHT22;59997;53.300;-6.260;2022-07-09T13:38:50;23.34;62.71
71942;DHT22;59997;53.300;-6.260;2022-07-09T13:41:16;23.68;64.60
71942;DHT22;59997;53.300;-6.260;2022-07-09T13:43:42;23.44;61.41
71942;DHT22;59997;53.300;-6.260;2022-07-09T13:46:11;23.50;62.09
71942;DHT22;59997;53.300;-6.260;2022-07-09T13:48:37;23.66;60.54
71942;DHT22;59997;53.300;-6.260;2022-07-09T13:51:03;24.02;61.77
71942;DHT22;59997;53.300;-6.260;2022-07-09T13:53:29;24.38;60.59
71942;DHT22;59997;53.300;-6.260;2022-07-09T13:55:58;23.99;58.54
71942;DHT22;59997;53.300;-6.260;2022-07-09T13:58:24;23.50;59.67
71942;DHT22;59997;53.300;-6.260;2022-07-09T14:00:50;23.66;61.48
71942;DHT22;59997;53.300;-6.260;2022-07-09T14:03:16;24.03;60.34
71942;DHT22;59997;53.300;-6.260;2022-07-09T14:05:42;24.14;60.58
71942;DHT22;59997;53.300;-6.260;2022-07-09T14:08:08;24.21;58.76
71942;DHT22;59997;53.300;-6.260;2022-07-09T14:10:34;24.17;62.50
71942;DHT22;59997;53.300;-6.260;2022-07-09T14:13:00;24.25;58.92
71942;DHT22;59997;53.300;-6.260;2022-07-09T14:15:27;24.18;58.59
71942;DHT22;59997;53.300;-6.260;2022-07-09T14:17:53;24.20;59.59
71942;DHT22;59997;53.300;-6.260;2022-07-09T14:20:19;23.99;59.18
71942;DHT22;59997;53.300;-6.260;2022-07-09T14:22:46;24.30;59.58
71942;DHT22;59997;53.300;-6.260;2022-07-09T14:25:11;24.45;59.61
71942;DHT22;59997;53.300;-6.260;2022-07-09T14:27:37;24.39;60.44
71942;DHT22;59997;53.300;-6.260;2022-07-09T14:30:04;24.34;61.62
71942;DHT22;59997;53.300;-6.260;2022-07-09T14:32:31;24.03;58.97
71942;DHT22;59997;53.300;-6.260;2022-07-09T14:34:57;23.51;60.16
71942;DHT22;59997;53.300;-6.260;2022-07-09T14:37:22;23.54;59.96
71942;DHT22;59997;53.300;-6.260;2022-07-09T14:39:48;23.45;60.74
71942;DHT22;59997;53.300;-6.260;2022-07-09T14:42:14;23.02;61.42
71942;DHT22;59997;53.300;-6.260;2022-07-09T14:44:40;23.14;62.85
71942;DHT22;59997;53.300;-6.260;2022-07-09T14:47:07;23.10;60.42
71942;DHT22;59997;53.300;-6.260;2022-07-09T14:49:34;23.19;62.24
71942;DHT22;59997;53.300;-6.260;2022-07-09T14:52:00;23.23;62.38
71942;DHT22;59997;53.300;-6.260;2022-07-09T14:54:26;23.23;60.98
71942;DHT22;59997;53.300;-6.260;2022-07-09T14:56:51;23.14;60.40
71942;DHT22;59997;53.300;-6.260;2022-07-09T14:59:17;23.48;60.58
71942;DHT22;59997;53.300;-6.260;2022-07-09T15:01:45;23.30;58.90
71942;DHT22;59997;53.300;-6.260;2022-07-09T15:04:12;22.86;60.87
71942;DHT22;59997;53.300;-6.260;2022-07-09T15:06:38;22.59;62.13
71942;DHT22;59997;53.300;-6.260;2022-07-09T15:09:04;22.73;64.21
71942;DHT22;59997;53.300;-6.260;2022-07-09T15:11:30;22.76;65.64
71942;DHT22;59997;53.300;-6.260;2022-07-09T15:13:56;22.84;63.53
71942;DHT22;59997;53.300;-6.260;2022-07-09T15:16:21;22.98;63.71